Time;durP1;ratioP1;P1;durP2;ratioP2;P2;SDS_P1;SDS_P2;PMS_P1;PMS_P2;Temp;Humidity;BMP_temperature;BMP_pressure;BME280_temperature;BME280_humidity;BME280_pressure;Samples;Min_cycle;Max_cycle;Signal;HPM_P1;HPM_P2
2021/07/05 00:00:08;;;;;;;7.07;6.53;;;11.50;99.90;;;;;;5032736;28;20026;-68
2021/07/05 00:02:35;;;;;;;6.97;6.30;;;11.60;99.90;;;;;;5032932;28;20028;-70
2021/07/05 00:05:05;;;;;;;5.50;5.00;;;11.70;99.90;;;;;;5032571;28;20042;-68
2021/07/05 00:07:32;;;;;;;6.28;5.65;;;11.70;99.90;;;;;;5032731;28;20025;-69
2021/07/05 00:10:00;;;;;;;5.47;5.10;;;11.80;99.90;;;;;;5031520;28;20103;-69
2021/07/05 00:12:27;;;;;;;5.75;5.15;;;11.90;99.90;;;;;;5032588;28;20524;-69
2021/07/05 00:14:55;;;;;;;5.70;5.30;;;12.00;99.90;;;;;;5032704;28;20112;-70
2021/07/05 00:17:22;;;;;;;5.93;5.45;;;12.10;99.90;;;;;;5032699;28;20096;-70
2021/07/05 00:19:50;;;;;;;6.00;5.68;;;12.10;99.90;;;;;;5032859;28;20504;-69
2021/07/05 00:22:17;;;;;;;5.70;5.20;;;12.20;99.90;;;;;;5032629;28;20036;-70
2021/07/05 00:24:44;;;;;;;6.28;5.65;;;12.30;99.90;;;;;;5032655;28;20505;-71
2021/07/05 00:27:12;;;;;;;5.22;4.82;;;12.40;99.90;;;;;;5032447;28;20017;-71
2021/07/05 00:29:39;;;;;;;6.05;5.00;;;12.50;99.90;;;;;;5032504;28;20121;-71
2021/07/05 00:32:07;;;;;;;5.10;4.88;;;12.40;99.90;;;;;;5037557;28;20037;-70
2021/07/05 00:34:34;;;;;;;4.85;4.63;;;12.60;99.90;;;;;;5036707;28;20041;-69
2021/07/05 00:37:01;;;;;;;5.90;5.13;;;12.60;99.90;;;;;;5036096;28;20022;-69
2021/07/05 00:39:29;;;;;;;4.55;4.35;;;12.70;99.90;;;;;;5036243;28;20025;-67
2021/07/05 00:41:56;;;;;;;4.57;4.18;;;12.70;99.90;;;;;;5035929;28;20466;-69
2021/07/05 00:44:23;;;;;;;5.40;5.05;;;12.80;99.90;;;;;;5036044;28;20036;-71
2021/07/05 00:46:51;;;;;;;5.32;5.10;;;12.80;99.90;;;;;;5036025;28;20080;-68
2021/07/05 00:49:18;;;;;;;5.88;5.20;;;12.80;99.90;;;;;;5035668;28;20113;-70
2021/07/05 00:51:45;;;;;;;4.80;4.50;;;13.00;99.90;;;;;;5035753;28;20028;-71
2021/07/05 00:54:13;;;;;;;5.00;4.70;;;13.00;99.90;;;;;;5036387;28;20025;-70
2021/07/05 00:56:41;;;;;;;5.47;5.07;;;13.00;99.90;;;;;;5036353;28;20025;-70
2021/07/05 00:59:10;;;;;;;5.03;4.70;;;13.10;99.90;;;;;;5035903;28;20038;-69
2021/07/05 01:01:37;;;;;;;5.47;5.10;;;13.10;99.90;;;;;;5036110;28;20032;-70
2021/07/05 01:04:05;;;;;;;5.60;5.20;;;13.10;99.90;;;;;;5035925;28;20220;-72
2021/07/05 01:06:32;;;;;;;5.85;5.43;;;13.30;99.90;;;;;;5036046;28;20113;-69
2021/07/05 01:09:00;;;;;;;5.32;5.05;;;13.50;99.90;;;;;;5035835;28;20057;-71
2021/07/05 01:11:27;;;;;;;5.22;5.03;;;13.70;99.90;;;;;;5035980;28;20056;-70
2021/07/05 01:13:55;;;;;;;5.03;4.60;;;13.80;99.90;;;;;;5035812;28;20024;-69
2021/07/05 01:16:22;;;;;;;4.63;4.22;;;14.00;99.90;;;;;;5035790;28;20408;-70
2021/07/05 01:18:49;;;;;;;4.70;4.50;;;13.90;99.90;;;;;;5035718;28;20025;-68
2021/07/05 01:21:17;;;;;;;4.20;4.00;;;13.80;99.90;;;;;;5034526;28;20486;-69
2021/07/05 01:23:44;;;;;;;5.10;4.70;;;13.90;99.90;;;;;;5035991;28;20040;-70
2021/07/05 01:26:12;;;;;;;4.10;3.80;;;14.10;99.90;;;;;;5035587;28;20510;-70
2021/07/05 01:28:39;;;;;;;3.80;3.67;;;14.20;99.90;;;;;;5035511;28;20428;-69
2021/07/05 01:31:06;;;;;;;3.40;3.30;;;14.40;99.90;;;;;;5035586;28;20390;-69
2021/07/05 01:33:34;;;;;;;3.72;3.50;;;14.40;99.90;;;;;;5035683;28;20022;-70
2021/07/05 01:36:02;;;;;;;3.50;3.40;;;14.40;99.90;;;;;;5034312;28;20105;-69
2021/07/05 01:38:30;;;;;;;3.40;3.30;;;14.10;99.90;;;;;;5035379;28;20048;-70
2021/07/05 01:41:01;;;;;;;3.83;3.63;;;14.30;99.90;;;;;;5035435;28;20507;-70
2021/07/05 01:43:29;;;;;;;3.60;3.40;;;14.30;99.90;;;;;;5035126;28;20087;-71
2021/07/05 01:45:57;;;;;;;3.97;3.72;;;14.30;99.90;;;;;;5035186;28;20025;-72
2021/07/05 01:48:25;;;;;;;4.00;3.80;;;14.30;99.90;;;;;;5034929;28;20036;-72
2021/07/05 01:50:54;;;;;;;4.00;3.70;;;14.40;99.90;;;;;;5035244;28;20026;-71
2021/07/05 01:53:22;;;;;;;4.80;3.90;;;14.40;99.90;;;;;;5035301;28;20394;-69
2021/07/05 01:55:49;;;;;;;4.55;4.28;;;14.50;99.90;;;;;;5035397;28;20027;-68
2021/07/05 01:58:17;;;;;;;4.13;4.03;;;14.60;99.90;;;;;;5035218;28;20026;-71
2021/07/05 02:00:46;;;;;;;4.40;4.20;;;14.60;99.90;;;;;;5034986;28;20021;-71
2021/07/05 02:03:15;;;;;;;3.92;3.80;;;14.60;99.90;;;;;;5035092;28;20052;-70
2021/07/05 02:05:44;;;;;;;3.90;3.80;;;14.60;99.90;;;;;;5034619;28;20045;-70
2021/07/05 02:08:13;;;;;;;3.17;3.08;;;14.70;99.90;;;;;;5034833;28;20025;-70
2021/07/05 02:10:41;;;;;;;3.20;3.10;;;14.80;99.90;;;;;;5034883;28;20052;-69
2021/07/05 02:13:18;;;;;;;2.83;2.72;;;14.90;99.90;;;;;;5034797;28;20034;-70
2021/07/05 02:15:46;;;;;;;3.42;3.13;;;14.90;99.90;;;;;;5033494;28;20032;-70
2021/07/05 02:18:14;;;;;;;3.50;3.20;;;14.70;99.90;;;;;;5034946;28;20075;-69
2021/07/05 02:20:41;;;;;;;3.70;3.50;;;14.90;99.90;;;;;;5034865;28;20017;-70
2021/07/05 02:23:12;;;;;;;4.03;3.83;;;14.80;99.80;;;;;;5034447;28;20025;-69
2021/07/05 02:25:41;;;;;;;3.80;3.70;;;15.10;99.90;;;;;;5034539;28;20018;-69
2021/07/05 02:28:13;;;;;;;3.92;3.72;;;15.00;99.20;;;;;;5034406;28;20028;-69
2021/07/05 02:30:42;;;;;;;4.00;3.80;;;15.20;99.30;;;;;;5034442;28;20152;-69
2021/07/05 02:33:10;;;;;;;4.13;3.83;;;15.40;99.00;;;;;;5034420;28;20025;-68
2021/07/05 02:35:38;;;;;;;3.90;3.70;;;15.20;98.90;;;;;;5032973;28;20048;-67
2021/07/05 02:38:09;;;;;;;3.63;3.50;;;15.40;99.30;;;;;;5034028;28;20109;-67
2021/07/05 02:40:43;;;;;;;3.80;3.50;;;15.50;98.40;;;;;;5034226;28;20543;-67
2021/07/05 02:43:11;;;;;;;3.25;3.15;;;15.40;98.40;;;;;;5034621;28;20030;-67
2021/07/05 02:45:41;;;;;;;3.58;3.45;;;15.40;97.70;;;;;;5033965;28;20421;-67
2021/07/05 02:48:12;;;;;;;3.03;2.92;;;15.30;98.50;;;;;;5033869;28;20052;-68
2021/07/05 02:50:41;;;;;;;3.40;3.20;;;15.30;97.50;;;;;;5034078;28;20044;-68
2021/07/05 02:53:10;;;;;;;3.20;3.10;;;15.40;97.40;;;;;;5033995;28;20032;-68
2021/07/05 02:55:38;;;;;;;3.42;3.33;;;15.40;97.80;;;;;;5032545;28;20018;-67
2021/07/05 02:58:06;;;;;;;3.70;3.40;;;15.60;96.80;;;;;;5034125;28;20044;-67
2021/07/05 03:00:43;;;;;;;3.60;3.40;;;15.60;97.70;;;;;;5034005;28;20025;-67
2021/07/05 03:03:11;;;;;;;3.50;3.20;;;15.90;97.70;;;;;;5033819;28;20045;-68
2021/07/05 03:05:39;;;;;;;3.65;3.45;;;15.90;96.80;;;;;;5033853;28;20052;-66
2021/07/05 03:08:07;;;;;;;3.40;3.30;;;15.90;96.70;;;;;;5032578;28;20025;-67
2021/07/05 03:10:37;;;;;;;4.05;3.60;;;15.90;96.40;;;;;;5033683;28;20017;-68
2021/07/05 03:13:11;;;;;;;3.80;3.60;;;15.90;96.20;;;;;;5033682;28;20017;-67
2021/07/05 03:15:39;;;;;;;3.40;3.20;;;15.80;96.20;;;;;;5033885;28;20382;-68
2021/07/05 03:18:08;;;;;;;4.18;3.88;;;15.80;96.00;;;;;;5033485;28;20343;-69
2021/07/05 03:20:39;;;;;;;3.33;3.13;;;15.80;96.80;;;;;;5033891;28;20071;-69
2021/07/05 03:23:08;;;;;;;3.45;3.20;;;15.80;96.70;;;;;;5033658;28;20377;-69
2021/07/05 03:25:37;;;;;;;3.25;3.15;;;15.80;96.20;;;;;;5032172;28;20435;-69
2021/07/05 03:28:07;;;;;;;3.30;3.20;;;15.80;96.70;;;;;;5033578;28;20471;-68
2021/07/05 03:30:37;;;;;;;3.20;3.10;;;15.60;96.00;;;;;;5033940;28;20025;-69
2021/07/05 03:33:05;;;;;;;3.83;3.63;;;15.60;96.00;;;;;;5033772;28;20608;-70
2021/07/05 03:35:35;;;;;;;2.50;2.40;;;15.50;96.30;;;;;;5033800;28;20025;-70
2021/07/05 03:38:04;;;;;;;2.53;2.42;;;15.70;96.50;;;;;;5033703;28;20105;-69
2021/07/05 03:40:35;;;;;;;2.90;2.70;;;15.60;95.90;;;;;;5032217;28;20018;-69
2021/07/05 03:43:04;;;;;;;2.70;2.60;;;15.70;96.20;;;;;;5033348;28;20029;-71
2021/07/05 03:45:34;;;;;;;3.47;3.28;;;15.60;95.70;;;;;;5033218;28;20022;-70
2021/07/05 03:48:02;;;;;;;3.10;3.00;;;15.60;95.90;;;;;;5031952;28;20021;-70
2021/07/05 03:50:30;;;;;;;3.30;3.20;;;15.80;95.70;;;;;;5033243;28;20052;-69
2021/07/05 03:52:57;;;;;;;3.20;3.10;;;15.60;95.20;;;;;;5033419;28;20018;-68
2021/07/05 03:55:27;;;;;;;3.00;2.90;;;15.60;95.90;;;;;;5032028;28;20021;-68
2021/07/05 03:57:55;;;;;;;3.20;3.00;;;15.50;95.30;;;;;;5033288;28;20382;-70
2021/07/05 04:00:26;;;;;;;3.10;3.00;;;15.50;95.30;;;;;;5033259;28;20064;-70
2021/07/05 04:02:53;;;;;;;3.10;3.00;;;15.40;95.60;;;;;;5031972;28;20025;-70
2021/07/05 04:05:21;;;;;;;3.58;3.30;;;15.40;95.20;;;;;;5033072;28;20041;-69
2021/07/05 04:07:48;;;;;;;3.10;3.00;;;15.50;95.80;;;;;;5036557;28;20022;-68
2021/07/05 04:10:18;;;;;;;2.90;2.80;;;15.20;95.90;;;;;;5037125;28;20505;-69
2021/07/05 04:12:45;;;;;;;3.10;3.00;;;15.10;96.00;;;;;;5037015;28;20022;-70
2021/07/05 04:15:14;;;;;;;3.35;3.10;;;15.10;95.60;;;;;;5036884;28;20047;-67
2021/07/05 04:17:42;;;;;;;3.00;2.90;;;15.20;95.90;;;;;;5035694;28;20022;-66
2021/07/05 04:20:13;;;;;;;3.25;3.15;;;15.30;96.00;;;;;;5037244;28;20394;-65
2021/07/05 04:22:41;;;;;;;3.28;3.08;;;15.50;95.60;;;;;;5037024;28;20021;-66
2021/07/05 04:25:11;;;;;;;3.30;3.20;;;15.40;96.40;;;;;;5036976;28;20364;-65
2021/07/05 04:27:39;;;;;;;3.40;3.30;;;15.50;95.30;;;;;;5036829;28;20053;-67
2021/07/05 04:30:08;;;;;;;3.60;3.50;;;15.40;95.60;;;;;;5036585;28;20282;-67
2021/07/05 04:32:39;;;;;;;3.58;3.38;;;15.50;96.00;;;;;;5036794;28;20025;-70
2021/07/05 04:35:10;;;;;;;3.40;3.10;;;15.40;95.30;;;;;;5035485;28;20028;-67
2021/07/05 04:37:38;;;;;;;4.28;3.42;;;15.10;95.60;;;;;;5036556;28;20033;-67
2021/07/05 04:40:09;;;;;;;3.50;3.30;;;15.00;95.60;;;;;;5036646;28;20056;-67
2021/07/05 04:42:36;;;;;;;3.08;2.97;;;15.10;95.00;;;;;;5036875;28;20021;-66
2021/07/05 04:45:06;;;;;;;3.72;3.10;;;15.30;95.80;;;;;;5036391;28;20084;-69
2021/07/05 04:47:34;;;;;;;2.90;2.80;;;15.30;95.00;;;;;;5036659;28;20449;-68
2021/07/05 04:50:01;;;;;;;3.35;3.05;;;15.30;95.50;;;;;;5036424;28;20029;-68
2021/07/05 04:52:29;;;;;;;3.10;2.90;;;15.30;94.70;;;;;;5036605;28;20382;-66
2021/07/05 04:54:56;;;;;;;3.30;3.10;;;15.40;96.20;;;;;;5036239;28;20057;-67
2021/07/05 04:57:24;;;;;;;3.80;3.50;;;15.50;95.80;;;;;;5036461;28;20022;-65
2021/07/05 04:59:51;;;;;;;3.60;3.40;;;15.50;95.60;;;;;;5036222;28;20071;-66
2021/07/05 05:02:21;;;;;;;3.47;3.28;;;15.50;96.40;;;;;;5036097;28;20026;-66
2021/07/05 05:04:49;;;;;;;3.63;3.43;;;15.50;95.40;;;;;;5035968;28;20079;-65
2021/07/05 05:07:16;;;;;;;3.17;3.03;;;15.40;95.60;;;;;;5036087;28;20030;-66
2021/07/05 05:09:44;;;;;;;3.47;3.30;;;15.40;95.10;;;;;;5035912;28;20367;-66
2021/07/05 05:12:11;;;;;;;3.85;3.65;;;15.40;95.70;;;;;;5036182;28;20028;-65
2021/07/05 05:14:39;;;;;;;3.63;3.50;;;15.50;96.50;;;;;;5035842;28;20381;-66
2021/07/05 05:17:07;;;;;;;3.70;3.40;;;15.50;94.90;;;;;;5035343;28;20041;-66
2021/07/05 05:19:35;;;;;;;3.55;3.38;;;15.50;95.50;;;;;;5035740;28;20509;-65
2021/07/05 05:22:06;;;;;;;3.40;3.30;;;15.40;95.40;;;;;;5035866;28;20506;-66
2021/07/05 05:24:33;;;;;;;2.90;2.70;;;15.40;95.20;;;;;;5035756;28;20105;-67
2021/07/05 05:27:01;;;;;;;3.10;2.90;;;15.40;95.70;;;;;;5035686;28;20509;-66
2021/07/05 05:29:28;;;;;;;2.60;2.40;;;15.30;95.20;;;;;;5035684;28;20087;-68
2021/07/05 05:31:56;;;;;;;2.85;2.35;;;15.20;95.20;;;;;;5035602;28;20022;-68
2021/07/05 05:34:23;;;;;;;2.45;2.10;;;15.20;95.80;;;;;;5035600;28;20053;-70
2021/07/05 05:36:50;;;;;;;3.15;2.90;;;15.20;95.40;;;;;;5035465;28;20025;-70
2021/07/05 05:39:18;;;;;;;2.88;2.78;;;15.20;95.30;;;;;;5034172;28;20033;-65
2021/07/05 05:41:46;;;;;;;2.70;2.50;;;15.10;95.10;;;;;;5035335;28;20022;-70
2021/07/05 05:44:13;;;;;;;2.80;2.70;;;15.10;95.50;;;;;;5035408;28;20087;-69
2021/07/05 05:46:40;;;;;;;2.60;2.50;;;15.00;95.70;;;;;;5035434;28;20026;-71
2021/07/05 05:49:09;;;;;;;3.28;3.00;;;14.90;95.40;;;;;;5035208;28;20017;-69
2021/07/05 05:51:39;;;;;;;3.50;3.38;;;14.90;95.80;;;;;;5035173;28;20040;-69
2021/07/05 05:54:09;;;;;;;3.30;3.20;;;14.80;95.90;;;;;;5033932;28;20036;-69
2021/07/05 05:56:40;;;;;;;3.70;3.60;;;14.70;96.10;;;;;;5034042;28;20095;-65
2021/07/05 05:59:09;;;;;;;3.30;3.20;;;14.60;96.50;;;;;;5035268;28;20271;-65
2021/07/05 06:01:41;;;;;;;3.30;3.10;;;14.60;96.50;;;;;;5035160;28;20132;-66
2021/07/05 06:04:08;;;;;;;3.60;3.40;;;14.60;96.80;;;;;;5034933;28;20041;-65
2021/07/05 06:06:38;;;;;;;3.20;3.10;;;14.50;97.60;;;;;;5035539;28;20037;-68
2021/07/05 06:09:06;;;;;;;3.20;3.10;;;14.30;97.10;;;;;;5034963;28;20505;-65
2021/07/05 06:11:35;;;;;;;2.95;2.85;;;14.30;96.90;;;;;;5034930;28;20026;-66
2021/07/05 06:14:04;;;;;;;2.83;2.67;;;14.20;97.30;;;;;;5034615;28;20028;-65
2021/07/05 06:16:32;;;;;;;3.05;2.90;;;14.10;96.80;;;;;;5034761;28;20475;-65
2021/07/05 06:19:00;;;;;;;3.15;2.95;;;14.20;97.00;;;;;;5034850;28;20048;-65
2021/07/05 06:21:28;;;;;;;2.80;2.70;;;14.00;97.30;;;;;;5034883;28;20029;-65
2021/07/05 06:23:57;;;;;;;3.53;3.42;;;13.90;98.00;;;;;;5034847;28;20029;-65
2021/07/05 06:26:24;;;;;;;3.20;3.10;;;14.00;96.90;;;;;;5034734;28;20026;-64
2021/07/05 06:28:51;;;;;;;2.95;2.85;;;13.80;97.00;;;;;;5033614;28;20028;-64
2021/07/05 06:31:19;;;;;;;3.25;3.00;;;13.80;97.60;;;;;;5034696;28;20017;-64
2021/07/05 06:33:46;;;;;;;2.70;2.50;;;13.70;97.50;;;;;;5034567;28;20021;-68
2021/07/05 06:36:14;;;;;;;2.90;2.80;;;13.60;97.00;;;;;;5034371;28;20147;-68
2021/07/05 06:38:43;;;;;;;3.00;2.80;;;13.60;97.40;;;;;;5034437;28;20032;-66
2021/07/05 06:41:10;;;;;;;2.97;2.88;;;13.50;97.40;;;;;;5034278;28;20509;-67
2021/07/05 06:43:37;;;;;;;3.25;3.15;;;13.40;96.70;;;;;;5034299;28;20022;-68
2021/07/05 06:46:05;;;;;;;3.33;3.00;;;13.30;96.80;;;;;;5033046;28;20029;-66
2021/07/05 06:48:32;;;;;;;3.40;3.20;;;13.30;96.30;;;;;;5034139;28;20026;-68
2021/07/05 06:51:00;;;;;;;3.50;3.40;;;13.30;96.10;;;;;;5034358;28;20029;-66
2021/07/05 06:53:27;;;;;;;3.50;3.30;;;13.30;96.30;;;;;;5034140;28;20018;-69
2021/07/05 06:55:56;;;;;;;3.63;3.42;;;13.20;96.90;;;;;;5033978;28;20017;-68
2021/07/05 06:58:23;;;;;;;4.15;3.95;;;13.10;96.90;;;;;;5033956;28;20382;-68
2021/07/05 07:00:51;;;;;;;4.20;3.90;;;13.00;96.90;;;;;;5034012;28;20071;-67
2021/07/05 07:03:22;;;;;;;4.10;3.90;;;12.90;96.90;;;;;;5033856;28;20470;-69
2021/07/05 07:05:50;;;;;;;4.35;4.15;;;12.70;97.40;;;;;;5033776;28;20045;-69
2021/07/05 07:08:17;;;;;;;4.18;3.80;;;12.60;97.60;;;;;;5033955;28;20029;-69
2021/07/05 07:10:45;;;;;;;8.40;3.97;;;12.50;97.60;;;;;;5033977;28;20398;-69
2021/07/05 07:13:12;;;;;;;4.55;4.18;;;12.50;97.80;;;;;;5033820;28;20440;-68
2021/07/05 07:15:44;;;;;;;3.83;3.63;;;12.30;98.50;;;;;;5033720;28;20104;-67
2021/07/05 07:20:58;;;;;;;4.63;3.95;;;11.90;99.90;;;;;;5033887;28;20013;-66
2021/07/05 07:23:26;;;;;;;3.97;3.78;;;11.90;99.50;;;;;;5033600;28;20029;-66
2021/07/05 07:25:54;;;;;;;4.38;3.97;;;11.80;98.80;;;;;;5033558;28;20183;-67
2021/07/05 07:28:21;;;;;;;4.20;3.90;;;11.70;99.00;;;;;;5033485;28;20021;-64
2021/07/05 07:30:49;;;;;;;4.43;4.13;;;11.70;99.30;;;;;;5033516;28;20032;-64
2021/07/05 07:33:17;;;;;;;5.13;4.75;;;11.60;99.40;;;;;;5033442;28;20026;-65
2021/07/05 07:35:45;;;;;;;4.28;4.07;;;11.50;99.90;;;;;;5032193;28;20115;-64
2021/07/05 07:38:12;;;;;;;4.90;4.20;;;11.60;99.90;;;;;;5033248;28;20105;-64
2021/07/05 07:40:41;;;;;;;4.45;4.15;;;11.60;99.90;;;;;;5033080;28;20109;-65
2021/07/05 07:43:09;;;;;;;7.78;4.22;;;11.50;99.90;;;;;;5033343;28;20037;-64
2021/07/05 07:45:37;;;;;;;4.97;4.47;;;11.50;99.90;;;;;;5033372;28;20032;-64
2021/07/05 07:48:05;;;;;;;5.28;4.88;;;11.40;99.90;;;;;;5033073;28;20108;-65
2021/07/05 07:50:32;;;;;;;5.60;5.10;;;11.30;99.90;;;;;;5033211;28;20115;-64
2021/07/05 07:53:00;;;;;;;5.38;5.05;;;11.20;99.90;;;;;;5033113;28;20371;-64
2021/07/05 07:55:27;;;;;;;5.65;5.18;;;11.20;99.90;;;;;;5032911;28;20021;-64
2021/07/05 07:57:54;;;;;;;5.50;5.00;;;11.20;99.90;;;;;;5033392;28;20067;-65
2021/07/05 08:00:22;;;;;;;5.35;4.85;;;11.30;99.90;;;;;;5032904;28;20095;-65
2021/07/05 08:02:49;;;;;;;5.65;5.25;;;11.10;99.90;;;;;;5031878;28;20414;-65
2021/07/05 08:05:17;;;;;;;5.28;4.85;;;11.30;99.90;;;;;;5032871;28;20045;-65
2021/07/05 08:07:45;;;;;;;5.20;4.70;;;11.30;99.90;;;;;;5032956;28;20026;-64
2021/07/05 08:10:14;;;;;;;7.63;5.78;;;11.50;99.90;;;;;;5033068;28;20030;-65
2021/07/05 08:12:43;;;;;;;5.30;4.90;;;11.50;99.90;;;;;;5032777;28;20028;-64
2021/07/05 08:15:12;;;;;;;5.43;5.05;;;11.50;99.90;;;;;;5032867;28;20025;-65
2021/07/05 08:17:42;;;;;;;4.72;4.53;;;11.40;99.90;;;;;;5032929;28;20021;-65
2021/07/05 08:20:11;;;;;;;5.20;4.80;;;11.40;99.90;;;;;;5032911;28;20037;-64
2021/07/05 08:22:38;;;;;;;5.85;4.80;;;11.50;99.90;;;;;;5032787;28;20105;-64
2021/07/05 08:25:07;;;;;;;5.20;4.70;;;11.60;99.90;;;;;;5032833;28;20109;-64
2021/07/05 08:27:35;;;;;;;5.30;4.95;;;11.50;99.90;;;;;;5032728;28;20079;-65
2021/07/05 08:30:04;;;;;;;7.18;5.20;;;11.50;99.90;;;;;;5032895;28;20025;-65
2021/07/05 08:32:32;;;;;;;5.50;5.10;;;11.50;99.90;;;;;;5032835;28;20535;-65
2021/07/05 08:35:00;;;;;;;5.43;5.03;;;11.50;99.90;;;;;;5031514;28;20441;-65
2021/07/05 08:37:27;;;;;;;5.15;4.75;;;11.30;99.90;;;;;;5032866;28;20049;-66
2021/07/05 08:39:55;;;;;;;4.90;4.50;;;11.20;99.90;;;;;;5032757;28;20439;-65
2021/07/05 08:42:27;;;;;;;5.28;4.93;;;11.30;99.90;;;;;;5031384;28;20049;-65
2021/07/05 08:44:54;;;;;;;4.85;4.45;;;11.20;99.90;;;;;;5032864;28;20026;-65
2021/07/05 08:47:26;;;;;;;5.75;5.25;;;11.20;99.90;;;;;;5032807;28;20053;-65
2021/07/05 08:49:53;;;;;;;5.40;5.00;;;11.10;99.90;;;;;;5032599;28;20100;-66
2021/07/05 08:52:21;;;;;;;5.15;4.75;;;11.00;99.90;;;;;;5033396;28;20071;-65
2021/07/05 08:54:48;;;;;;;5.47;5.18;;;10.90;99.90;;;;;;5036408;28;20455;-64
2021/07/05 08:57:30;;;;;;;5.90;4.85;;;10.80;99.90;;;;;;5036800;28;20459;-64
2021/07/05 08:59:58;;;;;;;6.20;5.75;;;10.60;99.90;;;;;;5036390;28;20030;-64
2021/07/05 09:02:25;;;;;;;5.78;5.20;;;10.60;99.90;;;;;;5036488;28;20047;-65
2021/07/05 09:04:53;;;;;;;5.65;5.25;;;10.40;99.90;;;;;;5036334;28;20049;-66
2021/07/05 09:07:20;;;;;;;5.40;5.00;;;10.40;99.90;;;;;;5036440;28;20029;-65
2021/07/05 09:10:03;;;;;;;4.60;4.30;;;10.70;99.90;;;;;;5035913;28;20117;-64
2021/07/05 09:12:31;;;;;;;5.10;4.80;;;10.80;99.90;;;;;;5036350;28;20022;-66
2021/07/05 09:15:10;;;;;;;5.13;4.63;;;10.90;99.90;;;;;;5036157;28;20021;-66
2021/07/05 09:17:40;;;;;;;5.07;4.40;;;11.00;99.90;;;;;;5036225;28;20076;-65
2021/07/05 09:20:16;;;;;;;4.70;4.35;;;10.90;99.90;;;;;;5036131;28;20437;-64
2021/07/05 09:23:13;;;;;;;4.40;4.10;;;10.90;99.90;;;;;;5036086;28;20079;-66
2021/07/05 09:25:47;;;;;;;4.88;4.50;;;11.10;99.90;;;;;;5035498;28;20061;-64
2021/07/05 09:28:16;;;;;;;4.38;4.13;;;11.20;99.90;;;;;;5035951;28;20033;-65
2021/07/05 09:30:50;;;;;;;4.20;3.90;;;11.30;99.90;;;;;;5034377;28;20025;-66
2021/07/05 09:33:29;;;;;;;4.57;4.13;;;11.30;99.90;;;;;;5035878;28;20029;-66
2021/07/05 09:36:02;;;;;;;3.85;3.55;;;11.30;99.90;;;;;;5034554;28;20021;-65
2021/07/05 09:38:38;;;;;;;3.85;3.58;;;11.30;99.90;;;;;;5035414;28;20390;-66
2021/07/05 09:41:24;;;;;;;3.50;3.30;;;11.30;99.90;;;;;;5035329;28;20018;-66
2021/07/05 09:43:55;;;;;;;3.78;3.60;;;11.10;99.90;;;;;;5035548;28;20097;-68
2021/07/05 09:46:40;;;;;;;3.58;3.38;;;11.20;99.90;;;;;;5035712;28;20083;-68
2021/07/05 09:49:14;;;;;;;3.72;3.53;;;11.10;99.90;;;;;;5035348;28;20541;-66
2021/07/05 09:51:44;;;;;;;3.47;3.28;;;11.20;99.90;;;;;;5035311;28;20045;-66
2021/07/05 09:54:14;;;;;;;3.60;3.40;;;11.10;99.90;;;;;;5034864;28;20074;-70
2021/07/05 09:56:42;;;;;;;3.72;3.53;;;11.00;99.90;;;;;;5034186;28;20049;-67
2021/07/05 09:59:21;;;;;;;3.42;3.30;;;11.00;99.90;;;;;;5034988;28;20105;-67
2021/07/05 10:01:53;;;;;;;2.85;2.70;;;10.90;99.90;;;;;;5035061;28;20071;-65
2021/07/05 10:04:36;;;;;;;2.90;2.70;;;10.90;99.90;;;;;;5034592;28;20103;-66
2021/07/05 10:07:06;;;;;;;3.80;3.47;;;10.90;99.90;;;;;;5034974;28;20479;-67
2021/07/05 10:09:42;;;;;;;3.80;3.50;;;10.80;99.90;;;;;;5034672;28;20030;-65
2021/07/05 10:12:33;;;;;;;3.42;3.13;;;10.80;99.90;;;;;;5034928;28;20066;-64
2021/07/05 10:15:12;;;;;;;3.35;3.17;;;10.80;99.90;;;;;;5034824;28;20021;-69
2021/07/05 10:17:46;;;;;;;3.60;3.40;;;10.80;99.90;;;;;;5034561;28;20017;-66
2021/07/05 10:20:20;;;;;;;3.70;3.50;;;10.90;99.90;;;;;;5034629;28;20109;-66
2021/07/05 10:22:50;;;;;;;3.80;3.60;;;10.90;99.90;;;;;;5033175;28;20029;-65
2021/07/05 10:25:19;;;;;;;4.07;3.88;;;10.90;99.90;;;;;;5034630;28;20075;-64
2021/07/05 10:27:47;;;;;;;3.70;3.50;;;10.90;99.90;;;;;;5034336;28;20109;-66
2021/07/05 10:30:16;;;;;;;3.53;3.15;;;10.80;99.90;;;;;;5032958;28;20029;-66
2021/07/05 10:32:44;;;;;;;2.60;2.50;;;10.80;99.90;;;;;;5034386;28;20029;-62
2021/07/05 10:35:15;;;;;;;2.80;2.70;;;10.70;99.90;;;;;;5034507;28;20028;-64
2021/07/05 10:38:01;;;;;;;;;;;10.80;99.90;;;;;;5034732;28;20022;-65
2021/07/05 10:40:41;;;;;;;3.05;2.80;;;10.80;99.90;;;;;;5034241;28;19912;-64
2021/07/05 10:43:14;;;;;;;4.30;3.15;;;10.80;99.90;;;;;;5034213;28;20144;-65
2021/07/05 10:45:50;;;;;;;3.40;3.20;;;10.70;99.90;;;;;;5034476;28;20030;-65
2021/07/05 10:48:37;;;;;;;3.40;3.20;;;10.80;99.90;;;;;;5034179;28;20367;-66
2021/07/05 10:51:06;;;;;;;3.40;3.20;;;10.80;99.90;;;;;;5032885;28;20438;-66
2021/07/05 10:53:45;;;;;;;3.20;3.10;;;10.80;99.90;;;;;;5032727;28;20064;-65
2021/07/05 10:56:30;;;;;;;3.20;3.00;;;10.70;99.90;;;;;;5033879;28;20525;-65
2021/07/05 10:59:14;;;;;;;3.67;3.40;;;10.70;99.90;;;;;;5032582;28;20030;-65
2021/07/05 11:01:46;;;;;;;3.90;3.70;;;10.60;99.90;;;;;;5034053;28;20076;-65
2021/07/05 11:04:33;;;;;;;4.18;3.78;;;10.70;99.90;;;;;;5033476;28;20128;-65
2021/07/05 11:07:24;;;;;;;4.18;3.90;;;10.70;99.90;;;;;;5033731;28;20076;-65
2021/07/05 11:10:00;;;;;;;4.32;4.13;;;10.60;99.90;;;;;;5033629;28;20018;-65
2021/07/05 11:12:34;;;;;;;3.92;3.80;;;10.60;99.90;;;;;;5033657;28;20148;-65
2021/07/05 11:15:03;;;;;;;4.13;3.92;;;10.60;99.90;;;;;;5033202;28;20029;-65
2021/07/05 11:17:37;;;;;;;4.30;4.10;;;10.80;99.90;;;;;;5032297;28;20030;-65
2021/07/05 11:20:17;;;;;;;3.80;3.60;;;10.70;99.90;;;;;;5033567;28;20100;-65
2021/07/05 11:23:00;;;;;;;4.20;4.00;;;10.60;99.90;;;;;;5032313;28;20053;-65
2021/07/05 11:25:28;;;;;;;3.95;3.75;;;10.50;99.90;;;;;;5033525;28;20032;-65
2021/07/05 11:28:02;;;;;;;4.00;3.80;;;10.50;99.90;;;;;;5033341;28;20030;-65
2021/07/05 11:30:41;;;;;;;3.70;3.58;;;10.40;99.90;;;;;;5033437;28;20553;-66
2021/07/05 11:33:11;;;;;;;3.92;3.72;;;10.50;99.90;;;;;;5033271;28;20043;-65
2021/07/05 11:36:02;;;;;;;4.00;3.80;;;10.50;99.90;;;;;;5033613;28;20013;-66
2021/07/05 11:38:42;;;;;;;3.72;3.60;;;10.50;99.90;;;;;;5032845;28;20029;-66
2021/07/05 11:41:13;;;;;;;2.78;2.67;;;10.50;99.90;;;;;;5032084;28;20025;-66
2021/07/05 11:44:02;;;;;;;3.67;3.40;;;10.50;99.90;;;;;;5032084;28;20033;-66
2021/07/05 11:46:29;;;;;;;2.95;2.85;;;10.50;99.90;;;;;;5033199;28;20025;-64
2021/07/05 11:49:00;;;;;;;2.60;2.50;;;10.50;99.90;;;;;;5032993;28;20040;-64
2021/07/05 11:51:31;;;;;;;;;;;10.50;99.90;;;;;;5033518;28;20025;-66
2021/07/05 11:54:09;;;;;;;3.72;3.63;;;10.50;99.90;;;;;;5033218;28;19912;-65
2021/07/05 11:56:50;;;;;;;3.50;3.40;;;10.40;99.90;;;;;;5033355;28;20044;-65
2021/07/05 11:59:30;;;;;;;4.10;3.90;;;10.50;99.90;;;;;;5033374;28;20108;-65
2021/07/05 12:02:12;;;;;;;3.80;3.60;;;10.40;99.90;;;;;;5033458;28;20057;-65
2021/07/05 12:04:45;;;;;;;3.65;3.45;;;10.30;99.90;;;;;;5033017;28;20557;-65
2021/07/05 12:07:24;;;;;;;3.78;3.60;;;10.20;99.90;;;;;;5033024;28;20025;-65
2021/07/05 12:09:53;;;;;;;3.88;3.67;;;10.20;99.90;;;;;;5032852;28;20025;-65
2021/07/05 12:12:22;;;;;;;4.15;3.95;;;10.00;99.90;;;;;;5033084;28;20544;-66
2021/07/05 12:14:51;;;;;;;4.50;4.30;;;10.10;99.90;;;;;;5033193;28;20482;-64
2021/07/05 12:17:21;;;;;;;4.43;4.22;;;10.00;99.90;;;;;;5032891;28;20014;-64
2021/07/05 12:19:52;;;;;;;4.80;4.50;;;9.90;99.90;;;;;;5031641;28;20030;-66
2021/07/05 12:22:25;;;;;;;3.80;3.70;;;10.00;99.90;;;;;;5032979;28;20029;-64
2021/07/05 12:24:57;;;;;;;4.40;4.10;;;10.00;99.90;;;;;;5032747;28;20108;-64
2021/07/05 12:27:31;;;;;;;4.10;3.90;;;10.00;99.90;;;;;;5033874;28;20018;-64
2021/07/05 12:30:03;;;;;;;4.47;4.28;;;10.00;99.90;;;;;;5036534;28;20029;-65
2021/07/05 12:32:36;;;;;;;4.00;3.80;;;9.90;99.90;;;;;;5036714;28;20026;-65
2021/07/05 12:35:15;;;;;;;4.15;3.95;;;9.90;99.90;;;;;;5036412;28;20022;-64
2021/07/05 12:37:59;;;;;;;4.47;4.28;;;10.00;99.90;;;;;;5036345;28;20021;-64
2021/07/05 12:40:31;;;;;;;4.30;4.10;;;9.90;99.90;;;;;;5036560;28;20025;-65
2021/07/05 12:43:04;;;;;;;4.60;4.30;;;9.90;99.90;;;;;;5036610;28;20381;-66
2021/07/05 12:45:39;;;;;;;4.00;3.80;;;9.80;99.90;;;;;;5036562;28;20021;-66
2021/07/05 12:48:42;;;;;;;4.88;4.60;;;9.70;99.90;;;;;;5036510;28;20462;-66
2021/07/05 12:51:13;;;;;;;4.53;4.22;;;9.70;99.90;;;;;;5034324;28;20041;-65
2021/07/05 12:53:42;;;;;;;;;;;9.70;99.90;;;;;;5036585;28;20038;-66
2021/07/05 12:56:11;;;;;;;4.40;4.20;;;9.70;99.90;;;;;;5035283;28;19905;-65
2021/07/05 12:58:46;;;;;;;4.30;4.10;;;9.70;99.90;;;;;;5036233;28;20017;-65
2021/07/05 13:01:18;;;;;;;4.50;4.20;;;9.60;99.90;;;;;;5036207;28;20022;-65
2021/07/05 13:04:00;;;;;;;4.90;4.60;;;9.50;99.90;;;;;;5035773;28;20115;-65
2021/07/05 13:06:31;;;;;;;4.80;4.40;;;9.50;99.90;;;;;;5036084;28;20026;-64